Caledonia, Michigan
Current Conditions -  °F | °C
As of 12:05 AM on Sunday 23 Nov 2014 (Local Time) from KGRR Reporting Station
Overcast Overcast  
Wind Chill: 40°   Ceiling: 1900
Heat Index: 45°   Visibility: 7mi
Dew Point: 42°   Wind: 9mph
Humidity: 90%   Direction: 200°SSW
Pressure: 29.88"   Gusts: NA
Location:  42.79°N, 85.52°W
Report Text: KGRR 230505Z AUTO 20008KT 7SM BKN019 BKN024 OVC060 07/06 A2988 RMK AO2 T00720056
Loading
Personal Weather Stations






























Interactive Weather Map New forecast layout! Learn more

10-Day Weather Forecast

Advertisements
Track Severe Weather on mobile